Terminal Aerodrome Forecast
Issued by NWS

Home | Current Version | Previous Version | Text Only | Print | Product List | Glossary On
Versions: 1 2 3 4 5 6 7 8 9 10 11 12 13
688
FTUS45 KVEF 271126
TAFBIH
TAF
KBIH 271126Z 2712/2812 VRB05KT P6SM FEW120
     FM271900 17012G17KT P6SM SCT120
     FM280300 17008KT P6SM FEW200
     FM280500 34006KT P6SM SCT200=

USA.gov is the U.S. government's official web portal to all federal, state and local government web resources and services.